sensor_id;sensor_type;location;lat;lon;timestamp;temperature;humidity
67364;HTU21D;54250;45.572;38.086;2023-04-15T00:00:16;6.00;89.60
67364;HTU21D;54250;45.572;38.086;2023-04-15T00:02:45;6.01;89.62
67364;HTU21D;54250;45.572;38.086;2023-04-15T00:05:11;6.04;89.63
67364;HTU21D;54250;45.572;38.086;2023-04-15T00:07:37;6.13;89.44
67364;HTU21D;54250;45.572;38.086;2023-04-15T00:10:03;6.20;89.25
67364;HTU21D;54250;45.572;38.086;2023-04-15T00:12:30;6.23;89.18
67364;HTU21D;54250;45.572;38.086;2023-04-15T00:14:56;6.23;89.21
67364;HTU21D;54250;45.572;38.086;2023-04-15T00:17:23;6.24;89.26
67364;HTU21D;54250;45.572;38.086;2023-04-15T00:19:49;6.21;89.40
67364;HTU21D;54250;45.572;38.086;2023-04-15T00:22:15;6.21;89.47
67364;HTU21D;54250;45.572;38.086;2023-04-15T00:24:42;6.21;89.54
67364;HTU21D;54250;45.572;38.086;2023-04-15T00:27:09;6.23;89.56
67364;HTU21D;54250;45.572;38.086;2023-04-15T00:29:36;6.21;89.60
67364;HTU21D;54250;45.572;38.086;2023-04-15T00:32:02;6.16;89.70
67364;HTU21D;54250;45.572;38.086;2023-04-15T00:34:28;6.15;89.83
67364;HTU21D;54250;45.572;38.086;2023-04-15T00:36:54;6.17;89.75
67364;HTU21D;54250;45.572;38.086;2023-04-15T00:39:21;6.20;89.75
67364;HTU21D;54250;45.572;38.086;2023-04-15T00:41:48;6.20;89.77
67364;HTU21D;54250;45.572;38.086;2023-04-15T00:44:14;6.19;89.76
67364;HTU21D;54250;45.572;38.086;2023-04-15T00:46:42;6.20;89.73
67364;HTU21D;54250;45.572;38.086;2023-04-15T00:49:10;6.17;89.75
67364;HTU21D;54250;45.572;38.086;2023-04-15T00:51:37;6.12;89.85
67364;HTU21D;54250;45.572;38.086;2023-04-15T00:54:03;6.14;89.88
67364;HTU21D;54250;45.572;38.086;2023-04-15T00:56:30;6.14;89.88
67364;HTU21D;54250;45.572;38.086;2023-04-15T00:58:58;6.17;89.83
67364;HTU21D;54250;45.572;38.086;2023-04-15T01:01:25;6.25;89.63
67364;HTU21D;54250;45.572;38.086;2023-04-15T01:03:51;6.30;89.46
67364;HTU21D;54250;45.572;38.086;2023-04-15T01:06:17;6.30;89.44
67364;HTU21D;54250;45.572;38.086;2023-04-15T01:08:43;6.28;89.55
67364;HTU21D;54250;45.572;38.086;2023-04-15T01:11:12;6.26;89.63
67364;HTU21D;54250;45.572;38.086;2023-04-15T01:13:39;6.26;89.71
67364;HTU21D;54250;45.572;38.086;2023-04-15T01:16:06;6.27;89.74
67364;HTU21D;54250;45.572;38.086;2023-04-15T01:18:34;6.26;89.72
67364;HTU21D;54250;45.572;38.086;2023-04-15T01:21:01;6.26;89.75
67364;HTU21D;54250;45.572;38.086;2023-04-15T01:23:28;6.24;89.83
67364;HTU21D;54250;45.572;38.086;2023-04-15T01:25:55;6.24;89.96
67364;HTU21D;54250;45.572;38.086;2023-04-15T01:28:22;6.24;89.97
67364;HTU21D;54250;45.572;38.086;2023-04-15T01:30:47;6.21;90.05
67364;HTU21D;54250;45.572;38.086;2023-04-15T01:33:13;6.17;90.12
67364;HTU21D;54250;45.572;38.086;2023-04-15T01:35:40;6.19;90.18
67364;HTU21D;54250;45.572;38.086;2023-04-15T01:38:10;6.21;90.05
67364;HTU21D;54250;45.572;38.086;2023-04-15T01:40:37;6.14;90.21
67364;HTU21D;54250;45.572;38.086;2023-04-15T01:43:03;6.16;90.21
67364;HTU21D;54250;45.572;38.086;2023-04-15T01:45:29;6.26;90.05
67364;HTU21D;54250;45.572;38.086;2023-04-15T01:47:55;6.28;89.92
67364;HTU21D;54250;45.572;38.086;2023-04-15T01:50:21;6.24;90.03
67364;HTU21D;54250;45.572;38.086;2023-04-15T01:52:47;6.22;90.12
67364;HTU21D;54250;45.572;38.086;2023-04-15T01:55:13;6.20;90.13
67364;HTU21D;54250;45.572;38.086;2023-04-15T01:57:39;6.16;90.26
67364;HTU21D;54250;45.572;38.086;2023-04-15T02:00:06;6.12;90.37
67364;HTU21D;54250;45.572;38.086;2023-04-15T02:02:39;6.14;90.29
67364;HTU21D;54250;45.572;38.086;2023-04-15T02:05:05;6.15;90.24
67364;HTU21D;54250;45.572;38.086;2023-04-15T02:07:31;6.16;90.22
67364;HTU21D;54250;45.572;38.086;2023-04-15T02:09:57;6.14;90.20
67364;HTU21D;54250;45.572;38.086;2023-04-15T02:12:23;6.08;90.34
67364;HTU21D;54250;45.572;38.086;2023-04-15T02:14:49;5.99;90.57
67364;HTU21D;54250;45.572;38.086;2023-04-15T02:17:15;5.93;90.72
67364;HTU21D;54250;45.572;38.086;2023-04-15T02:19:42;5.90;90.76
67364;HTU21D;54250;45.572;38.086;2023-04-15T02:22:08;5.93;90.62
67364;HTU21D;54250;45.572;38.086;2023-04-15T02:24:35;5.94;90.50
67364;HTU21D;54250;45.572;38.086;2023-04-15T02:27:02;5.89;90.47
67364;HTU21D;54250;45.572;38.086;2023-04-15T02:29:28;5.78;90.72
67364;HTU21D;54250;45.572;38.086;2023-04-15T02:31:54;5.67;90.96
67364;HTU21D;54250;45.572;38.086;2023-04-15T02:34:20;5.57;91.13
67364;HTU21D;54250;45.572;38.086;2023-04-15T02:36:46;5.48;91.24
67364;HTU21D;54250;45.572;38.086;2023-04-15T02:39:14;5.40;91.27
67364;HTU21D;54250;45.572;38.086;2023-04-15T02:41:43;5.34;91.27
67364;HTU21D;54250;45.572;38.086;2023-04-15T02:44:13;5.27;91.31
67364;HTU21D;54250;45.572;38.086;2023-04-15T02:46:39;5.22;91.25
67364;HTU21D;54250;45.572;38.086;2023-04-15T02:49:05;5.19;91.19
67364;HTU21D;54250;45.572;38.086;2023-04-15T02:51:31;5.13;91.21
67364;HTU21D;54250;45.572;38.086;2023-04-15T02:53:57;5.15;91.13
67364;HTU21D;54250;45.572;38.086;2023-04-15T02:56:23;5.11;91.04
67364;HTU21D;54250;45.572;38.086;2023-04-15T02:58:49;5.10;91.08
67364;HTU21D;54250;45.572;38.086;2023-04-15T03:01:21;5.17;90.95
67364;HTU21D;54250;45.572;38.086;2023-04-15T03:03:46;5.28;90.63
67364;HTU21D;54250;45.572;38.086;2023-04-15T03:06:12;5.32;90.47
67364;HTU21D;54250;45.572;38.086;2023-04-15T03:08:38;5.38;90.44
67364;HTU21D;54250;45.572;38.086;2023-04-15T03:11:04;5.46;90.32
67364;HTU21D;54250;45.572;38.086;2023-04-15T03:13:32;5.56;90.22
67364;HTU21D;54250;45.572;38.086;2023-04-15T03:16:02;5.67;90.07
67364;HTU21D;54250;45.572;38.086;2023-04-15T03:18:30;5.83;89.91
67364;HTU21D;54250;45.572;38.086;2023-04-15T03:21:00;6.06;89.58
67364;HTU21D;54250;45.572;38.086;2023-04-15T03:23:29;6.27;89.29
67364;HTU21D;54250;45.572;38.086;2023-04-15T03:25:56;6.46;89.10
67364;HTU21D;54250;45.572;38.086;2023-04-15T03:28:23;6.58;88.90
67364;HTU21D;54250;45.572;38.086;2023-04-15T03:30:50;6.68;88.99
67364;HTU21D;54250;45.572;38.086;2023-04-15T03:33:16;6.82;89.03
67364;HTU21D;54250;45.572;38.086;2023-04-15T03:35:42;6.94;88.93
67364;HTU21D;54250;45.572;38.086;2023-04-15T03:38:08;7.10;88.94
67364;HTU21D;54250;45.572;38.086;2023-04-15T03:40:34;7.28;88.82
67364;HTU21D;54250;45.572;38.086;2023-04-15T03:43:00;7.46;88.71
67364;HTU21D;54250;45.572;38.086;2023-04-15T03:45:26;7.63;88.59
67364;HTU21D;54250;45.572;38.086;2023-04-15T03:47:52;7.79;88.59
67364;HTU21D;54250;45.572;38.086;2023-04-15T03:50:18;7.96;88.57
67364;HTU21D;54250;45.572;38.086;2023-04-15T03:52:44;8.16;88.55
67364;HTU21D;54250;45.572;38.086;2023-04-15T03:55:10;8.35;88.49
67364;HTU21D;54250;45.572;38.086;2023-04-15T03:57:36;8.55;88.38
67364;HTU21D;54250;45.572;38.086;2023-04-15T04:00:04;8.72;88.33
67364;HTU21D;54250;45.572;38.086;2023-04-15T04:02:37;8.86;88.45
67364;HTU21D;54250;45.572;38.086;2023-04-15T04:05:03;9.02;88.46
67364;HTU21D;54250;45.572;38.086;2023-04-15T04:07:29;9.20;88.43
67364;HTU21D;54250;45.572;38.086;2023-04-15T04:09:56;9.33;88.44
67364;HTU21D;54250;45.572;38.086;2023-04-15T04:12:22;9.41;88.67
67364;HTU21D;54250;45.572;38.086;2023-04-15T04:14:48;9.55;88.73
67364;HTU21D;54250;45.572;38.086;2023-04-15T04:17:15;9.68;88.71
67364;HTU21D;54250;45.572;38.086;2023-04-15T04:19:40;9.78;88.88
67364;HTU21D;54250;45.572;38.086;2023-04-15T04:22:06;9.92;88.90
67364;HTU21D;54250;45.572;38.086;2023-04-15T04:24:32;10.06;88.92
67364;HTU21D;54250;45.572;38.086;2023-04-15T04:26:58;10.13;88.86
67364;HTU21D;54250;45.572;38.086;2023-04-15T04:29:24;10.26;89.09
67364;HTU21D;54250;45.572;38.086;2023-04-15T04:31:50;10.50;88.89
67364;HTU21D;54250;45.572;38.086;2023-04-15T04:34:16;10.73;88.59
67364;HTU21D;54250;45.572;38.086;2023-04-15T04:36:42;11.34;87.64
67364;HTU21D;54250;45.572;38.086;2023-04-15T04:39:07;11.66;87.15
67364;HTU21D;54250;45.572;38.086;2023-04-15T04:41:33;12.00;86.83
67364;HTU21D;54250;45.572;38.086;2023-04-15T04:43:59;12.35;86.55
67364;HTU21D;54250;45.572;38.086;2023-04-15T04:46:25;12.82;86.07
67364;HTU21D;54250;45.572;38.086;2023-04-15T04:48:51;13.55;85.15
67364;HTU21D;54250;45.572;38.086;2023-04-15T04:51:17;14.63;83.70
67364;HTU21D;54250;45.572;38.086;2023-04-15T04:53:43;16.08;80.55
67364;HTU21D;54250;45.572;38.086;2023-04-15T04:56:09;17.01;78.90
67364;HTU21D;54250;45.572;38.086;2023-04-15T04:58:35;18.95;75.90
67364;HTU21D;54250;45.572;38.086;2023-04-15T05:01:02;21.35;71.11
67364;HTU21D;54250;45.572;38.086;2023-04-15T05:03:28;23.61;67.56
67364;HTU21D;54250;45.572;38.086;2023-04-15T05:05:54;25.84;64.06
67364;HTU21D;54250;45.572;38.086;2023-04-15T05:08:20;26.67;63.62
67364;HTU21D;54250;45.572;38.086;2023-04-15T05:10:47;27.25;62.92
67364;HTU21D;54250;45.572;38.086;2023-04-15T05:13:13;26.58;65.33
67364;HTU21D;54250;45.572;38.086;2023-04-15T05:15:39;27.05;65.04
67364;HTU21D;54250;45.572;38.086;2023-04-15T05:18:06;27.70;63.55
67364;HTU21D;54250;45.572;38.086;2023-04-15T05:20:32;26.90;64.72
67364;HTU21D;54250;45.572;38.086;2023-04-15T05:22:57;27.49;64.18
67364;HTU21D;54250;45.572;38.086;2023-04-15T05:25:23;28.71;61.37
67364;HTU21D;54250;45.572;38.086;2023-04-15T05:27:49;28.34;61.84
67364;HTU21D;54250;45.572;38.086;2023-04-15T05:30:16;28.97;60.32
67364;HTU21D;54250;45.572;38.086;2023-04-15T05:32:42;29.90;58.62
67364;HTU21D;54250;45.572;38.086;2023-04-15T05:35:08;29.70;59.06
67364;HTU21D;54250;45.572;38.086;2023-04-15T05:37:34;29.08;59.56
67364;HTU21D;54250;45.572;38.086;2023-04-15T05:40:00;27.96;61.41
67364;HTU21D;54250;45.572;38.086;2023-04-15T05:42:26;27.76;61.63
67364;HTU21D;54250;45.572;38.086;2023-04-15T05:44:52;29.54;58.67
67364;HTU21D;54250;45.572;38.086;2023-04-15T05:47:18;31.48;54.52
67364;HTU21D;54250;45.572;38.086;2023-04-15T05:49:44;30.47;55.61
67364;HTU21D;54250;45.572;38.086;2023-04-15T05:52:10;28.72;58.92
67364;HTU21D;54250;45.572;38.086;2023-04-15T05:54:36;29.58;57.30
67364;HTU21D;54250;45.572;38.086;2023-04-15T05:57:02;29.52;56.08
67364;HTU21D;54250;45.572;38.086;2023-04-15T05:59:28;27.96;58.47
67364;HTU21D;54250;45.572;38.086;2023-04-15T06:01:54;26.87;60.16
67364;HTU21D;54250;45.572;38.086;2023-04-15T06:04:21;26.67;60.09
67364;HTU21D;54250;45.572;38.086;2023-04-15T06:06:47;25.92;61.08
67364;HTU21D;54250;45.572;38.086;2023-04-15T06:09:13;25.12;62.01
67364;HTU21D;54250;45.572;38.086;2023-04-15T06:11:39;24.29;63.09
67364;HTU21D;54250;45.572;38.086;2023-04-15T06:14:06;23.36;64.24
67364;HTU21D;54250;45.572;38.086;2023-04-15T06:16:32;22.26;65.61
67364;HTU21D;54250;45.572;38.086;2023-04-15T06:18:58;21.48;66.61
67364;HTU21D;54250;45.572;38.086;2023-04-15T06:21:24;20.98;67.21
67364;HTU21D;54250;45.572;38.086;2023-04-15T06:23:50;20.61;67.50
67364;HTU21D;54250;45.572;38.086;2023-04-15T06:26:16;20.29;67.70
67364;HTU21D;54250;45.572;38.086;2023-04-15T06:28:42;19.95;68.01
67364;HTU21D;54250;45.572;38.086;2023-04-15T06:31:08;19.66;68.26
67364;HTU21D;54250;45.572;38.086;2023-04-15T06:33:34;19.26;68.71
67364;HTU21D;54250;45.572;38.086;2023-04-15T06:36:00;19.03;69.10
67364;HTU21D;54250;45.572;38.086;2023-04-15T06:38:26;18.98;69.00
67364;HTU21D;54250;45.572;38.086;2023-04-15T06:40:52;18.71;69.32
67364;HTU21D;54250;45.572;38.086;2023-04-15T06:43:18;18.51;69.68
67364;HTU21D;54250;45.572;38.086;2023-04-15T06:45:44;18.43;69.81
67364;HTU21D;54250;45.572;38.086;2023-04-15T06:48:11;18.39;69.87
67364;HTU21D;54250;45.572;38.086;2023-04-15T06:50:37;18.34;69.94
67364;HTU21D;54250;45.572;38.086;2023-04-15T06:53:03;18.17;70.16
67364;HTU21D;54250;45.572;38.086;2023-04-15T06:55:29;18.09;70.25
67364;HTU21D;54250;45.572;38.086;2023-04-15T06:57:56;18.04;70.44
67364;HTU21D;54250;45.572;38.086;2023-04-15T07:00:22;18.15;70.16
67364;HTU21D;54250;45.572;38.086;2023-04-15T07:02:48;18.36;69.94
67364;HTU21D;54250;45.572;38.086;2023-04-15T07:05:15;18.78;69.19
67364;HTU21D;54250;45.572;38.086;2023-04-15T07:07:41;19.29;68.26
67364;HTU21D;54250;45.572;38.086;2023-04-15T07:10:07;19.60;67.71
67364;HTU21D;54250;45.572;38.086;2023-04-15T07:12:34;19.59;67.87
67364;HTU21D;54250;45.572;38.086;2023-04-15T07:15:00;19.54;68.22
67364;HTU21D;54250;45.572;38.086;2023-04-15T07:17:26;19.52;68.46
67364;HTU21D;54250;45.572;38.086;2023-04-15T07:19:52;19.72;68.31
67364;HTU21D;54250;45.572;38.086;2023-04-15T07:22:18;19.60;68.49
67364;HTU21D;54250;45.572;38.086;2023-04-15T07:24:45;19.66;68.54
67364;HTU21D;54250;45.572;38.086;2023-04-15T07:27:11;19.65;68.55
67364;HTU21D;54250;45.572;38.086;2023-04-15T07:29:37;19.48;68.98
67364;HTU21D;54250;45.572;38.086;2023-04-15T07:32:03;19.26;69.38
67364;HTU21D;54250;45.572;38.086;2023-04-15T07:34:29;18.93;70.00
67364;HTU21D;54250;45.572;38.086;2023-04-15T07:36:55;18.47;70.74
67364;HTU21D;54250;45.572;38.086;2023-04-15T07:39:21;18.24;71.21
67364;HTU21D;54250;45.572;38.086;2023-04-15T07:41:48;18.34;71.06
67364;HTU21D;54250;45.572;38.086;2023-04-15T07:44:14;18.71;70.35
67364;HTU21D;54250;45.572;38.086;2023-04-15T07:46:40;19.14;69.35
67364;HTU21D;54250;45.572;38.086;2023-04-15T07:49:06;19.54;68.58
67364;HTU21D;54250;45.572;38.086;2023-04-15T07:51:32;19.94;67.69
67364;HTU21D;54250;45.572;38.086;2023-04-15T07:53:58;20.04;67.56
67364;HTU21D;54250;45.572;38.086;2023-04-15T07:56:24;20.00;67.78
67364;HTU21D;54250;45.572;38.086;2023-04-15T07:58:51;19.56;68.57
67364;HTU21D;54250;45.572;38.086;2023-04-15T08:01:17;19.17;69.27
67364;HTU21D;54250;45.572;38.086;2023-04-15T08:03:43;18.96;69.87
67364;HTU21D;54250;45.572;38.086;2023-04-15T08:06:09;18.81;70.12
67364;HTU21D;54250;45.572;38.086;2023-04-15T08:08:35;18.48;70.59
67364;HTU21D;54250;45.572;38.086;2023-04-15T08:11:01;18.17;71.07
67364;HTU21D;54250;45.572;38.086;2023-04-15T08:13:27;18.06;71.20
67364;HTU21D;54250;45.572;38.086;2023-04-15T08:16:17;18.19;70.77
67364;HTU21D;54250;45.572;38.086;2023-04-15T08:18:44;18.17;70.61
67364;HTU21D;54250;45.572;38.086;2023-04-15T08:21:11;18.04;70.59
67364;HTU21D;54250;45.572;38.086;2023-04-15T08:23:37;17.89;71.05
67364;HTU21D;54250;45.572;38.086;2023-04-15T08:26:04;17.66;71.29
67364;HTU21D;54250;45.572;38.086;2023-04-15T08:28:30;17.50;71.65
67364;HTU21D;54250;45.572;38.086;2023-04-15T08:30:57;17.39;71.80
67364;HTU21D;54250;45.572;38.086;2023-04-15T08:33:23;17.38;71.75
67364;HTU21D;54250;45.572;38.086;2023-04-15T08:35:49;17.39;71.67
67364;HTU21D;54250;45.572;38.086;2023-04-15T08:38:15;17.41;71.61
67364;HTU21D;54250;45.572;38.086;2023-04-15T08:40:43;17.64;71.36
67364;HTU21D;54250;45.572;38.086;2023-04-15T08:43:23;18.00;70.77
67364;HTU21D;54250;45.572;38.086;2023-04-15T08:45:54;18.39;70.00
67364;HTU21D;54250;45.572;38.086;2023-04-15T08:48:20;19.03;69.27
67364;HTU21D;54250;45.572;38.086;2023-04-15T08:50:49;21.27;65.08
67364;HTU21D;54250;45.572;38.086;2023-04-15T08:53:16;23.06;61.02
67364;HTU21D;54250;45.572;38.086;2023-04-15T08:55:44;24.51;59.41
67364;HTU21D;54250;45.572;38.086;2023-04-15T08:58:11;24.97;58.51
67364;HTU21D;54250;45.572;38.086;2023-04-15T09:00:39;23.86;60.60
67364;HTU21D;54250;45.572;38.086;2023-04-15T09:03:05;22.34;63.42
67364;HTU21D;54250;45.572;38.086;2023-04-15T09:05:32;20.81;64.69
67364;HTU21D;54250;45.572;38.086;2023-04-15T09:07:59;19.99;66.38
67364;HTU21D;54250;45.572;38.086;2023-04-15T09:10:27;19.54;67.04
67364;HTU21D;54250;45.572;38.086;2023-04-15T09:12:53;19.48;67.39
67364;HTU21D;54250;45.572;38.086;2023-04-15T09:15:20;19.60;66.83
67364;HTU21D;54250;45.572;38.086;2023-04-15T09:17:47;19.61;66.94
67364;HTU21D;54250;45.572;38.086;2023-04-15T09:20:15;19.40;67.15
67364;HTU21D;54250;45.572;38.086;2023-04-15T09:22:45;19.37;67.38
67364;HTU21D;54250;45.572;38.086;2023-04-15T09:27:56;19.75;66.71
67364;HTU21D;54250;45.572;38.086;2023-04-15T09:30:22;20.42;65.62
67364;HTU21D;54250;45.572;38.086;2023-04-15T09:32:53;20.68;65.11
67364;HTU21D;54250;45.572;38.086;2023-04-15T09:35:20;20.47;65.14
67364;HTU21D;54250;45.572;38.086;2023-04-15T09:37:47;20.15;66.25
67364;HTU21D;54250;45.572;38.086;2023-04-15T09:40:14;20.04;66.63
67364;HTU21D;54250;45.572;38.086;2023-04-15T09:42:56;20.22;66.56
67364;HTU21D;54250;45.572;38.086;2023-04-15T09:45:22;20.62;65.04
67364;HTU21D;54250;45.572;38.086;2023-04-15T09:47:48;19.85;66.31
67364;HTU21D;54250;45.572;38.086;2023-04-15T09:50:18;19.06;67.90
67364;HTU21D;54250;45.572;38.086;2023-04-15T09:52:45;18.61;68.58
67364;HTU21D;54250;45.572;38.086;2023-04-15T09:55:13;18.36;69.01
67364;HTU21D;54250;45.572;38.086;2023-04-15T09:57:39;18.76;68.58
67364;HTU21D;54250;45.572;38.086;2023-04-15T10:00:07;19.16;67.68
67364;HTU21D;54250;45.572;38.086;2023-04-15T10:02:39;19.50;67.07
67364;HTU21D;54250;45.572;38.086;2023-04-15T10:05:09;19.57;66.91
67364;HTU21D;54250;45.572;38.086;2023-04-15T10:07:37;19.43;67.23
67364;HTU21D;54250;45.572;38.086;2023-04-15T10:10:04;19.38;67.73
67364;HTU21D;54250;45.572;38.086;2023-04-15T10:12:31;19.22;67.82
67364;HTU21D;54250;45.572;38.086;2023-04-15T10:15:01;18.92;68.04
67364;HTU21D;54250;45.572;38.086;2023-04-15T10:17:29;18.76;68.40
67364;HTU21D;54250;45.572;38.086;2023-04-15T10:20:01;18.86;68.47
67364;HTU21D;54250;45.572;38.086;2023-04-15T10:22:31;18.99;68.65
67364;HTU21D;54250;45.572;38.086;2023-04-15T10:24:57;19.09;68.49
67364;HTU21D;54250;45.572;38.086;2023-04-15T10:27:25;19.44;68.11
67364;HTU21D;54250;45.572;38.086;2023-04-15T10:29:53;19.66;67.06
67364;HTU21D;54250;45.572;38.086;2023-04-15T10:32:20;19.15;67.08
67364;HTU21D;54250;45.572;38.086;2023-04-15T10:34:48;18.76;68.56
67364;HTU21D;54250;45.572;38.086;2023-04-15T10:37:21;18.83;68.84
67364;HTU21D;54250;45.572;38.086;2023-04-15T10:39:47;18.95;68.39
67364;HTU21D;54250;45.572;38.086;2023-04-15T10:42:16;19.17;67.82
67364;HTU21D;54250;45.572;38.086;2023-04-15T10:44:44;18.79;67.78
67364;HTU21D;54250;45.572;38.086;2023-04-15T10:47:17;18.53;68.44
67364;HTU21D;54250;45.572;38.086;2023-04-15T10:52:11;18.73;68.63
67364;HTU21D;54250;45.572;38.086;2023-04-15T10:54:37;18.91;67.97
67364;HTU21D;54250;45.572;38.086;2023-04-15T10:59:31;18.98;68.10
67364;HTU21D;54250;45.572;38.086;2023-04-15T11:04:55;18.83;68.49
67364;HTU21D;54250;45.572;38.086;2023-04-15T11:12:38;18.17;68.43
67364;HTU21D;54250;45.572;38.086;2023-04-15T11:15:33;17.92;69.04
67364;HTU21D;54250;45.572;38.086;2023-04-15T11:18:13;17.96;69.17
67364;HTU21D;54250;45.572;38.086;2023-04-15T11:20:42;18.34;68.17
67364;HTU21D;54250;45.572;38.086;2023-04-15T11:23:10;18.17;68.21
67364;HTU21D;54250;45.572;38.086;2023-04-15T11:25:36;17.90;68.80
67364;HTU21D;54250;45.572;38.086;2023-04-15T11:28:03;17.94;69.13
67364;HTU21D;54250;45.572;38.086;2023-04-15T11:30:32;18.32;68.39
67364;HTU21D;54250;45.572;38.086;2023-04-15T11:33:04;18.19;67.71
67364;HTU21D;54250;45.572;38.086;2023-04-15T11:35:31;17.91;68.47
67364;HTU21D;54250;45.572;38.086;2023-04-15T11:37:57;17.59;69.02
67364;HTU21D;54250;45.572;38.086;2023-04-15T11:40:25;17.47;69.44
67364;HTU21D;54250;45.572;38.086;2023-04-15T11:43:10;17.70;69.18
67364;HTU21D;54250;45.572;38.086;2023-04-15T11:45:59;17.79;68.43
67364;HTU21D;54250;45.572;38.086;2023-04-15T11:48:29;17.70;68.92
67364;HTU21D;54250;45.572;38.086;2023-04-15T11:53:46;17.50;69.42
67364;HTU21D;54250;45.572;38.086;2023-04-15T11:56:23;17.51;68.46
67364;HTU21D;54250;45.572;38.086;2023-04-15T11:58:55;17.25;69.13
67364;HTU21D;54250;45.572;38.086;2023-04-15T12:01:37;17.09;69.66
67364;HTU21D;54250;45.572;38.086;2023-04-15T12:04:13;17.02;69.76
67364;HTU21D;54250;45.572;38.086;2023-04-15T12:06:40;17.21;69.42
67364;HTU21D;54250;45.572;38.086;2023-04-15T12:09:07;17.10;68.99
67364;HTU21D;54250;45.572;38.086;2023-04-15T12:11:49;16.51;70.12
67364;HTU21D;54250;45.572;38.086;2023-04-15T12:17:05;16.55;70.49
67364;HTU21D;54250;45.572;38.086;2023-04-15T12:19:38;16.69;69.87
67364;HTU21D;54250;45.572;38.086;2023-04-15T12:24:37;16.18;70.93
67364;HTU21D;54250;45.572;38.086;2023-04-15T12:27:09;16.27;70.94
67364;HTU21D;54250;45.572;38.086;2023-04-15T12:29:36;16.52;70.55
67364;HTU21D;54250;45.572;38.086;2023-04-15T12:32:07;16.43;70.40
67364;HTU21D;54250;45.572;38.086;2023-04-15T12:34:43;16.31;70.91
67364;HTU21D;54250;45.572;38.086;2023-04-15T12:37:11;16.29;70.97
67364;HTU21D;54250;45.572;38.086;2023-04-15T12:39:40;16.36;71.00
67364;HTU21D;54250;45.572;38.086;2023-04-15T12:42:07;16.45;70.90
67364;HTU21D;54250;45.572;38.086;2023-04-15T12:44:35;16.45;70.87
67364;HTU21D;54250;45.572;38.086;2023-04-15T12:47:01;16.36;70.96
67364;HTU21D;54250;45.572;38.086;2023-04-15T12:49:27;16.02;71.48
67364;HTU21D;54250;45.572;38.086;2023-04-15T12:51:57;15.88;71.93
67364;HTU21D;54250;45.572;38.086;2023-04-15T12:54:27;15.84;71.90
67364;HTU21D;54250;45.572;38.086;2023-04-15T12:56:54;15.67;71.90
67364;HTU21D;54250;45.572;38.086;2023-04-15T12:59:20;15.41;72.41
67364;HTU21D;54250;45.572;38.086;2023-04-15T13:01:49;15.45;72.42
67364;HTU21D;54250;45.572;38.086;2023-04-15T13:04:16;15.65;71.93
67364;HTU21D;54250;45.572;38.086;2023-04-15T13:06:42;15.62;71.79
67364;HTU21D;54250;45.572;38.086;2023-04-15T13:09:08;15.46;72.19
67364;HTU21D;54250;45.572;38.086;2023-04-15T13:11:34;15.40;72.27
67364;HTU21D;54250;45.572;38.086;2023-04-15T13:14:05;15.49;72.09
67364;HTU21D;54250;45.572;38.086;2023-04-15T13:16:32;15.55;71.90
67364;HTU21D;54250;45.572;38.086;2023-04-15T13:18:59;15.31;72.25
67364;HTU21D;54250;45.572;38.086;2023-04-15T13:21:26;15.24;72.60
67364;HTU21D;54250;45.572;38.086;2023-04-15T13:23:53;15.45;72.13
67364;HTU21D;54250;45.572;38.086;2023-04-15T13:26:19;15.31;72.21
67364;HTU21D;54250;45.572;38.086;2023-04-15T13:28:45;15.08;72.79
67364;HTU21D;54250;45.572;38.086;2023-04-15T13:31:11;15.06;73.03
67364;HTU21D;54250;45.572;38.086;2023-04-15T13:33:37;15.02;72.97
67364;HTU21D;54250;45.572;38.086;2023-04-15T13:36:03;14.88;73.12
67364;HTU21D;54250;45.572;38.086;2023-04-15T13:38:29;14.65;73.57
67364;HTU21D;54250;45.572;38.086;2023-04-15T13:40:56;14.55;73.76
67364;HTU21D;54250;45.572;38.086;2023-04-15T13:43:22;14.45;73.77
67364;HTU21D;54250;45.572;38.086;2023-04-15T13:45:48;14.37;73.87
67364;HTU21D;54250;45.572;38.086;2023-04-15T13:48:14;14.25;74.03
67364;HTU21D;54250;45.572;38.086;2023-04-15T13:50:40;14.15;74.18
67364;HTU21D;54250;45.572;38.086;2023-04-15T13:53:11;14.06;74.32
67364;HTU21D;54250;45.572;38.086;2023-04-15T13:55:37;14.03;74.46
67364;HTU21D;54250;45.572;38.086;2023-04-15T13:58:10;13.96;74.52
67364;HTU21D;54250;45.572;38.086;2023-04-15T14:00:36;13.76;74.79
67364;HTU21D;54250;45.572;38.086;2023-04-15T14:03:02;13.61;75.15
67364;HTU21D;54250;45.572;38.086;2023-04-15T14:05:28;13.50;75.37
67364;HTU21D;54250;45.572;38.086;2023-04-15T14:07:56;13.50;75.40
67364;HTU21D;54250;45.572;38.086;2023-04-15T14:10:22;13.49;75.43
67364;HTU21D;54250;45.572;38.086;2023-04-15T14:12:48;13.37;75.50
67364;HTU21D;54250;45.572;38.086;2023-04-15T14:15:14;13.29;75.62
67364;HTU21D;54250;45.572;38.086;2023-04-15T14:17:40;13.21;75.79
67364;HTU21D;54250;45.572;38.086;2023-04-15T14:20:07;13.18;75.84
67364;HTU21D;54250;45.572;38.086;2023-04-15T14:22:34;13.10;75.95
67364;HTU21D;54250;45.572;38.086;2023-04-15T14:25:00;13.08;76.02
67364;HTU21D;54250;45.572;38.086;2023-04-15T14:27:27;13.01;76.11
67364;HTU21D;54250;45.572;38.086;2023-04-15T14:29:53;12.99;76.21
67364;HTU21D;54250;45.572;38.086;2023-04-15T14:32:19;12.93;76.58
67364;HTU21D;54250;45.572;38.086;2023-04-15T14:34:45;12.80;76.73
67364;HTU21D;54250;45.572;38.086;2023-04-15T14:37:11;12.70;77.05
67364;HTU21D;54250;45.572;38.086;2023-04-15T14:39:38;12.61;77.15
67364;HTU21D;54250;45.572;38.086;2023-04-15T14:42:04;12.46;77.27
67364;HTU21D;54250;45.572;38.086;2023-04-15T14:44:30;12.42;77.24
67364;HTU21D;54250;45.572;38.086;2023-04-15T14:46:56;12.41;77.21
67364;HTU21D;54250;45.572;38.086;2023-04-15T14:49:22;12.37;77.47
67364;HTU21D;54250;45.572;38.086;2023-04-15T14:51:48;12.31;77.56
67364;HTU21D;54250;45.572;38.086;2023-04-15T14:54:15;12.20;77.86
67364;HTU21D;54250;45.572;38.086;2023-04-15T14:56:41;12.10;78.04
67364;HTU21D;54250;45.572;38.086;2023-04-15T14:59:07;12.01;78.31
67364;HTU21D;54250;45.572;38.086;2023-04-15T15:01:33;11.93;78.47
67364;HTU21D;54250;45.572;38.086;2023-04-15T15:03:59;11.89;78.58
67364;HTU21D;54250;45.572;38.086;2023-04-15T15:06:25;11.88;78.66
67364;HTU21D;54250;45.572;38.086;2023-04-15T15:08:53;11.78;79.05
67364;HTU21D;54250;45.572;38.086;2023-04-15T15:11:19;11.63;79.32
67364;HTU21D;54250;45.572;38.086;2023-04-15T15:13:45;11.51;79.55
67364;HTU21D;54250;45.572;38.086;2023-04-15T15:16:11;11.41;79.63
67364;HTU21D;54250;45.572;38.086;2023-04-15T15:18:38;11.37;79.98
67364;HTU21D;54250;45.572;38.086;2023-04-15T15:21:04;11.30;80.06
67364;HTU21D;54250;45.572;38.086;2023-04-15T15:23:30;11.22;80.38
67364;HTU21D;54250;45.572;38.086;2023-04-15T15:25:57;11.19;80.65
67364;HTU21D;54250;45.572;38.086;2023-04-15T15:28:23;11.16;80.91